Flight Track Log - Related Links

Times and Time Zones

All times are in EDT time to prevent confusion due to time zone crossing. See the N749SS flight status page for this flight to view local times or setup timezone preferences in your user account.

Time Position Orientation Groundspeed Altitude Reporting Facility
EDT Latitude Longitude Course Direction KTS MPH feet Rate Location/Type
Fri 04:34:00 PM 33.7567 -117.8803 95° East  Level FlightAware Approximate
Fri 04:35:00 PM 33.7472 -117.7513 95° East  Level FlightAware Approximate
Fri 04:36:00 PM 33.7375 -117.6224 95° East  Level FlightAware Approximate
Fri 04:37:00 PM 33.7279 -117.4935 95° East  Level FlightAware Approximate
Fri 04:37:17 PM 33.7314 -117.6831 95° East 454 522 41,000  Level Los Angeles Center
Fri 04:38:19 PM 33.7500 -117.5358 81° East 451 519 41,800 871 Climbing Los Angeles Center
Fri 04:39:21 PM 33.7656 -117.3883 83° East 447 514 42,800 581 Climbing Los Angeles Center
Fri 04:40:23 PM 33.7778 -117.2103 85° East 451 519 43,000 96 Climbing Los Angeles Center
Fri 04:41:26 PM 33.7883 -117.0617 85° East 450 518 43,000  Level Los Angeles Center
Fri 04:42:28 PM 33.7975 -116.9161 86° East 444 511 43,000  Level Los Angeles Center
Fri 04:43:30 PM 33.8031 -116.7603 88° East 443 510 43,000  Level Los Angeles Center
Fri 04:44:32 PM 33.7903 -116.6136 96° East 445 512 43,000  Level Los Angeles Center
Fri 04:45:34 PM 33.7750 -116.4678 97° East 441 507 43,000 -48 Level Los Angeles Center
Fri 04:46:36 PM 33.7608 -116.3206 97° East 442 509 42,900 -774 Descending Los Angeles Center
Fri 04:47:38 PM 33.7456 -116.1736 97° East 442 509 41,400 -1,597 Descending Los Angeles Center
Fri 04:48:40 PM 33.7172 -115.9986 101° East 446 513 39,600 -1,597 Descending Los Angeles Center
Fri 04:49:42 PM 33.6789 -115.8508 107° East 459 528 38,100 -1,306 Descending Los Angeles Center
Fri 04:50:44 PM 33.6436 -115.7022 106° East 462 532 36,900 -1,210 Descending Los Angeles Center
Fri 04:51:46 PM 33.6094 -115.5561 106° East 455 524 35,600 -1,355 Descending Los Angeles Center
Fri 04:52:48 PM 33.5781 -115.4078 104° East 457 526 34,100 -1,440 Descending Los Angeles Center
Fri 04:53:51 PM 33.5792 -115.2508 89° East 468 539 32,600 -1,632 Descending Los Angeles Center
Fri 04:54:53 PM 33.5861 -115.0656 87° East 466 536 30,700 -1,645 Descending Los Angeles Center
Fri 04:55:55 PM 33.5908 -114.9100 88° East 467 537 29,200 -1,554 Descending Los Angeles Center
Fri 04:57:39 PM 33.5756 -114.6375 94° East 476 548 26,400 -1,600 Descending Albuquerque Center
Fri 04:58:40 PM 33.5442 -114.4847 104° East 474 545 24,800 -1,171 Descending Albuquerque Center
Fri 04:59:42 PM 33.5139 -114.3367 104° East 464 534 24,000 -387 Descending Albuquerque Center
Fri 05:00:44 PM 33.4850 -114.1872 103° East 461 531 24,000  Level Albuquerque Center
Fri 05:01:46 PM 33.4550 -114.0375 103° East 462 532 24,000 -49 Level Albuquerque Center
Fri 05:02:47 PM 33.4294 -113.8875 101° East 460 529 23,900 -780 Descending Albuquerque Center
Fri 05:03:49 PM 33.4492 -113.7058 83° East 460 529 22,400 -1,742 Descending Albuquerque Center
Fri 05:04:51 PM 33.4619 -113.5575 84° East 451 519 20,300 -1,984 Descending Albuquerque Center
Fri 05:05:53 PM 33.4733 -113.4117 85° East 443 510 18,300 -1,922 Descending Albuquerque Center
Fri 05:06:59 PM 33.5103 -113.2753 72° East 388 447 16,200 -1,846 Descending Albuquerque Center
Fri 05:07:11 PM 33.5200 -113.2450 69° East 390 449 15,900 -1,158 Descending Albuquerque Center
Fri 05:07:56 PM 33.5422 -113.1625 72° East 394 453 15,100 -1,180 Descending Albuquerque Center
Fri 05:08:12 PM 33.5544 -113.1222 70° East 390 449 14,700 -1,342 Descending Albuquerque Center
Fri 05:09:12 PM 33.5983 -113.0069 65° Northeast 387 445 13,400 -1,167 Descending Albuquerque Center
Fri 05:10:00 PM 33.6350 -112.9319 60° Northeast 383 441 12,600 -1,279 Descending Albuquerque Center
Fri 05:10:13 PM 33.6522 -112.8994 58° Northeast 386 444 12,100 -1,258 Descending Albuquerque Center
Fri 05:11:02 PM 33.6936 -112.8153 59° Northeast 384 442 11,300 -1,279 Descending Albuquerque Center
Fri 05:11:14 PM 33.7108 -112.7828 57° Northeast 372 428 10,800 -1,279 Descending Albuquerque Center
Fri 05:12:03 PM 33.7411 -112.7194 60° Northeast 339 390 10,000 -1,200 Descending Albuquerque Center
Fri 05:12:14 PM 33.7553 -112.6950 55° Northeast 290 334 9,600 -1,258 Descending Albuquerque Center
Fri 05:13:05 PM 33.7828 -112.6358 61° Northeast 294 338 8,700 -1,254 Descending Albuquerque Center
Fri 05:13:21 PM 33.8028 -112.6014 55° Northeast 292 336 8,200 -1,355 Descending Albuquerque Center
Fri 05:14:07 PM 33.8100 -112.5303 83° East 285 328 7,300 -1,167 Descending Albuquerque Center
Fri 05:15:09 PM 33.8119 -112.4372 89° East 278 320 6,100 -634 Descending Albuquerque Center
Fri 05:16:10 PM 33.8078 -112.3500 93° East 265 305 6,000 -49 Descending Albuquerque Center
Fri 05:17:12 PM 33.7950 -112.2633 100° East 264 304 6,000  Level Albuquerque Center
Fri 05:18:14 PM 33.7839 -112.1753 99° East 267 307 6,000  Level Albuquerque Center
Fri 05:19:16 PM 33.7739 -112.0886 98° East 265 305 6,000 -488 Level Albuquerque Center
Fri 05:20:17 PM 33.7503 -111.9936 107° East 251 289 5,000 -1,171 Descending Albuquerque Center
Fri 05:21:19 PM 33.7225 -111.9275 117° Southeast 228 262 3,600 -871 Descending Albuquerque Center
Fri 05:22:21 PM 33.6806 -111.8833 139° Southeast 210 242 3,200 -677 Descending Albuquerque Center
Fri 05:23:23 PM 33.6428 -111.8867 184° South 172 198 2,200 -823 Descending Albuquerque Center
Fri 05:24:25 PM 33.6206 -111.9139 226° Southwest 126 145 1,500 -677 Descending Albuquerque Center

Login

Don't have an account? Register now (free) for customized features, flight alerts, and more!